sensor_id;sensor_type;location;lat;lon;timestamp;temperature;humidity
34646;DHT22;20857;47.808;12.482;2024-01-15T00:02:00;-1.00;99.90
34646;DHT22;20857;47.808;12.482;2024-01-15T00:04:26;-1.00;99.90
34646;DHT22;20857;47.808;12.482;2024-01-15T00:06:51;-1.00;99.90
34646;DHT22;20857;47.808;12.482;2024-01-15T00:09:17;-0.90;99.90
34646;DHT22;20857;47.808;12.482;2024-01-15T00:11:42;-0.90;99.90
34646;DHT22;20857;47.808;12.482;2024-01-15T00:14:08;-0.90;99.90
34646;DHT22;20857;47.808;12.482;2024-01-15T00:16:34;-0.80;99.90
34646;DHT22;20857;47.808;12.482;2024-01-15T00:19:00;-0.90;99.90
34646;DHT22;20857;47.808;12.482;2024-01-15T00:21:25;-0.90;99.90
34646;DHT22;20857;47.808;12.482;2024-01-15T00:23:51;-0.90;99.90
34646;DHT22;20857;47.808;12.482;2024-01-15T00:26:17;-1.00;99.90
34646;DHT22;20857;47.808;12.482;2024-01-15T00:28:43;-0.90;99.90
34646;DHT22;20857;47.808;12.482;2024-01-15T00:31:08;-0.90;99.90
34646;DHT22;20857;47.808;12.482;2024-01-15T00:33:34;-0.90;99.90
34646;DHT22;20857;47.808;12.482;2024-01-15T00:36:00;-0.90;99.90
34646;DHT22;20857;47.808;12.482;2024-01-15T00:38:25;-0.90;99.90
34646;DHT22;20857;47.808;12.482;2024-01-15T00:40:51;-0.90;99.90
34646;DHT22;20857;47.808;12.482;2024-01-15T00:43:17;-0.80;99.90
34646;DHT22;20857;47.808;12.482;2024-01-15T00:45:45;-0.80;99.90
34646;DHT22;20857;47.808;12.482;2024-01-15T00:48:11;-0.70;99.90
34646;DHT22;20857;47.808;12.482;2024-01-15T00:50:36;-0.70;99.90
34646;DHT22;20857;47.808;12.482;2024-01-15T00:53:02;-0.70;99.90
34646;DHT22;20857;47.808;12.482;2024-01-15T00:55:28;-0.70;99.90
34646;DHT22;20857;47.808;12.482;2024-01-15T00:57:54;-0.60;99.90
34646;DHT22;20857;47.808;12.482;2024-01-15T01:00:20;-0.70;99.90
34646;DHT22;20857;47.808;12.482;2024-01-15T01:02:46;-0.60;99.90
34646;DHT22;20857;47.808;12.482;2024-01-15T01:05:11;-0.60;99.90
34646;DHT22;20857;47.808;12.482;2024-01-15T01:07:37;-0.60;99.90
34646;DHT22;20857;47.808;12.482;2024-01-15T01:10:03;-0.80;99.90
34646;DHT22;20857;47.808;12.482;2024-01-15T01:12:29;-0.80;99.90
34646;DHT22;20857;47.808;12.482;2024-01-15T01:14:55;-0.80;99.90
34646;DHT22;20857;47.808;12.482;2024-01-15T01:17:21;-0.70;99.90
34646;DHT22;20857;47.808;12.482;2024-01-15T01:19:46;-0.50;99.90
34646;DHT22;20857;47.808;12.482;2024-01-15T01:22:12;-0.20;99.90
34646;DHT22;20857;47.808;12.482;2024-01-15T01:24:38;0.10;99.90
34646;DHT22;20857;47.808;12.482;2024-01-15T01:27:03;0.20;99.90
34646;DHT22;20857;47.808;12.482;2024-01-15T01:29:29;0.20;99.90
34646;DHT22;20857;47.808;12.482;2024-01-15T01:31:55;0.30;99.90
34646;DHT22;20857;47.808;12.482;2024-01-15T01:34:21;0.30;99.90
34646;DHT22;20857;47.808;12.482;2024-01-15T01:36:47;0.60;99.90
34646;DHT22;20857;47.808;12.482;2024-01-15T01:39:13;0.90;99.90
34646;DHT22;20857;47.808;12.482;2024-01-15T01:41:38;1.00;99.90
34646;DHT22;20857;47.808;12.482;2024-01-15T01:44:05;1.00;99.90
34646;DHT22;20857;47.808;12.482;2024-01-15T01:46:31;1.00;99.90
34646;DHT22;20857;47.808;12.482;2024-01-15T01:48:57;1.10;99.90
34646;DHT22;20857;47.808;12.482;2024-01-15T01:51:24;1.10;99.90
34646;DHT22;20857;47.808;12.482;2024-01-15T01:53:50;1.00;99.90
34646;DHT22;20857;47.808;12.482;2024-01-15T01:56:17;0.90;99.90
34646;DHT22;20857;47.808;12.482;2024-01-15T01:58:44;0.90;99.90
34646;DHT22;20857;47.808;12.482;2024-01-15T02:01:12;1.10;99.90
34646;DHT22;20857;47.808;12.482;2024-01-15T02:03:39;1.00;99.90
34646;DHT22;20857;47.808;12.482;2024-01-15T02:06:05;0.90;99.90
34646;DHT22;20857;47.808;12.482;2024-01-15T02:08:31;0.90;99.90
34646;DHT22;20857;47.808;12.482;2024-01-15T02:10:57;0.90;99.90
34646;DHT22;20857;47.808;12.482;2024-01-15T02:13:22;1.00;99.90
34646;DHT22;20857;47.808;12.482;2024-01-15T02:15:48;1.00;99.90
34646;DHT22;20857;47.808;12.482;2024-01-15T02:18:13;1.10;99.90
34646;DHT22;20857;47.808;12.482;2024-01-15T02:20:39;1.00;99.90
34646;DHT22;20857;47.808;12.482;2024-01-15T02:23:08;1.00;99.90
34646;DHT22;20857;47.808;12.482;2024-01-15T02:25:47;1.00;99.90
34646;DHT22;20857;47.808;12.482;2024-01-15T02:28:17;0.90;99.90
34646;DHT22;20857;47.808;12.482;2024-01-15T02:30:43;0.70;99.90
34646;DHT22;20857;47.808;12.482;2024-01-15T02:33:09;0.60;99.90
34646;DHT22;20857;47.808;12.482;2024-01-15T02:35:35;0.50;99.90
34646;DHT22;20857;47.808;12.482;2024-01-15T02:38:07;0.30;99.90
34646;DHT22;20857;47.808;12.482;2024-01-15T02:40:34;0.30;99.90
34646;DHT22;20857;47.808;12.482;2024-01-15T02:43:00;0.20;99.90
34646;DHT22;20857;47.808;12.482;2024-01-15T02:45:27;0.20;99.90
34646;DHT22;20857;47.808;12.482;2024-01-15T02:47:52;0.10;99.90
34646;DHT22;20857;47.808;12.482;2024-01-15T02:50:18;0.00;99.90
34646;DHT22;20857;47.808;12.482;2024-01-15T02:52:44;0.00;99.90
34646;DHT22;20857;47.808;12.482;2024-01-15T02:55:09;-0.10;99.90
34646;DHT22;20857;47.808;12.482;2024-01-15T02:57:35;-0.10;99.90
34646;DHT22;20857;47.808;12.482;2024-01-15T03:00:00;-0.20;99.90
34646;DHT22;20857;47.808;12.482;2024-01-15T03:02:26;-0.20;99.90
34646;DHT22;20857;47.808;12.482;2024-01-15T03:04:52;-0.20;99.90
34646;DHT22;20857;47.808;12.482;2024-01-15T03:07:18;-0.20;99.90
34646;DHT22;20857;47.808;12.482;2024-01-15T03:09:43;-0.20;99.90
34646;DHT22;20857;47.808;12.482;2024-01-15T03:12:09;-0.20;99.90
34646;DHT22;20857;47.808;12.482;2024-01-15T03:14:35;-0.30;99.90
34646;DHT22;20857;47.808;12.482;2024-01-15T03:17:01;-0.20;99.90
34646;DHT22;20857;47.808;12.482;2024-01-15T03:19:26;-0.30;99.90
34646;DHT22;20857;47.808;12.482;2024-01-15T03:21:52;-0.30;99.90
34646;DHT22;20857;47.808;12.482;2024-01-15T03:24:18;-0.20;99.90
34646;DHT22;20857;47.808;12.482;2024-01-15T03:26:43;-0.30;99.90
34646;DHT22;20857;47.808;12.482;2024-01-15T03:29:09;-0.20;99.90
34646;DHT22;20857;47.808;12.482;2024-01-15T03:31:35;-0.30;99.90
34646;DHT22;20857;47.808;12.482;2024-01-15T03:34:00;-0.30;99.90
34646;DHT22;20857;47.808;12.482;2024-01-15T03:36:26;-0.30;99.90
34646;DHT22;20857;47.808;12.482;2024-01-15T03:38:51;-0.30;99.90
34646;DHT22;20857;47.808;12.482;2024-01-15T03:41:17;-0.30;99.90
34646;DHT22;20857;47.808;12.482;2024-01-15T03:43:42;-0.30;99.90
34646;DHT22;20857;47.808;12.482;2024-01-15T03:46:08;-0.40;99.90
34646;DHT22;20857;47.808;12.482;2024-01-15T03:48:34;-0.30;99.90
34646;DHT22;20857;47.808;12.482;2024-01-15T03:50:59;-0.30;99.90
34646;DHT22;20857;47.808;12.482;2024-01-15T03:53:25;-0.40;99.90
34646;DHT22;20857;47.808;12.482;2024-01-15T03:55:51;-0.40;99.90
34646;DHT22;20857;47.808;12.482;2024-01-15T03:58:17;-0.30;99.90
34646;DHT22;20857;47.808;12.482;2024-01-15T04:00:43;-0.40;99.90
34646;DHT22;20857;47.808;12.482;2024-01-15T04:03:09;-0.40;99.90
34646;DHT22;20857;47.808;12.482;2024-01-15T04:05:35;-0.40;99.90
34646;DHT22;20857;47.808;12.482;2024-01-15T04:08:01;-0.50;99.90
34646;DHT22;20857;47.808;12.482;2024-01-15T04:10:26;-0.40;99.90
34646;DHT22;20857;47.808;12.482;2024-01-15T04:12:52;-0.40;99.90
34646;DHT22;20857;47.808;12.482;2024-01-15T04:15:18;-0.40;99.90
34646;DHT22;20857;47.808;12.482;2024-01-15T04:17:43;-0.40;99.90
34646;DHT22;20857;47.808;12.482;2024-01-15T04:20:09;-0.40;99.90
34646;DHT22;20857;47.808;12.482;2024-01-15T04:22:35;-0.30;99.90
34646;DHT22;20857;47.808;12.482;2024-01-15T04:25:01;-0.30;99.90
34646;DHT22;20857;47.808;12.482;2024-01-15T04:27:27;-0.40;99.90
34646;DHT22;20857;47.808;12.482;2024-01-15T04:29:52;-0.30;99.90
34646;DHT22;20857;47.808;12.482;2024-01-15T04:32:18;-0.30;99.90
34646;DHT22;20857;47.808;12.482;2024-01-15T04:34:44;-0.30;99.90
34646;DHT22;20857;47.808;12.482;2024-01-15T04:37:10;-0.40;99.90
34646;DHT22;20857;47.808;12.482;2024-01-15T04:39:35;-0.40;99.90
34646;DHT22;20857;47.808;12.482;2024-01-15T04:42:01;-0.30;99.90
34646;DHT22;20857;47.808;12.482;2024-01-15T04:44:27;-0.30;99.90
34646;DHT22;20857;47.808;12.482;2024-01-15T04:46:52;-0.30;99.90
34646;DHT22;20857;47.808;12.482;2024-01-15T04:49:18;-0.30;99.90
34646;DHT22;20857;47.808;12.482;2024-01-15T04:51:43;-0.30;99.90
34646;DHT22;20857;47.808;12.482;2024-01-15T04:54:09;-0.30;99.90
34646;DHT22;20857;47.808;12.482;2024-01-15T04:56:34;-0.20;99.90
34646;DHT22;20857;47.808;12.482;2024-01-15T04:59:00;-0.20;99.90
34646;DHT22;20857;47.808;12.482;2024-01-15T05:01:29;-0.20;99.90
34646;DHT22;20857;47.808;12.482;2024-01-15T05:03:55;-0.20;99.90
34646;DHT22;20857;47.808;12.482;2024-01-15T05:06:20;-0.10;99.90
34646;DHT22;20857;47.808;12.482;2024-01-15T05:08:46;-0.20;99.90
34646;DHT22;20857;47.808;12.482;2024-01-15T05:11:11;-0.10;99.90
34646;DHT22;20857;47.808;12.482;2024-01-15T05:13:37;-0.10;99.90
34646;DHT22;20857;47.808;12.482;2024-01-15T05:16:02;-0.20;99.90
34646;DHT22;20857;47.808;12.482;2024-01-15T05:18:28;-0.10;99.90
34646;DHT22;20857;47.808;12.482;2024-01-15T05:20:54;-0.10;99.90
34646;DHT22;20857;47.808;12.482;2024-01-15T05:23:19;-0.10;99.90
34646;DHT22;20857;47.808;12.482;2024-01-15T05:25:45;-0.10;99.90
34646;DHT22;20857;47.808;12.482;2024-01-15T05:28:11;-0.10;99.90
34646;DHT22;20857;47.808;12.482;2024-01-15T05:30:36;-0.10;99.90
34646;DHT22;20857;47.808;12.482;2024-01-15T05:33:02;0.00;99.90
34646;DHT22;20857;47.808;12.482;2024-01-15T05:35:28;-0.10;99.90
34646;DHT22;20857;47.808;12.482;2024-01-15T05:37:54;-0.10;99.90
34646;DHT22;20857;47.808;12.482;2024-01-15T05:40:19;-0.10;99.90
34646;DHT22;20857;47.808;12.482;2024-01-15T05:42:45;-0.10;99.90
34646;DHT22;20857;47.808;12.482;2024-01-15T05:45:10;-0.10;99.90
34646;DHT22;20857;47.808;12.482;2024-01-15T05:47:36;0.00;99.90
34646;DHT22;20857;47.808;12.482;2024-01-15T05:50:01;0.00;99.90
34646;DHT22;20857;47.808;12.482;2024-01-15T05:52:27;0.00;99.90
34646;DHT22;20857;47.808;12.482;2024-01-15T05:54:53;0.00;99.90
34646;DHT22;20857;47.808;12.482;2024-01-15T05:57:19;0.00;99.90
34646;DHT22;20857;47.808;12.482;2024-01-15T05:59:44;0.00;99.90
34646;DHT22;20857;47.808;12.482;2024-01-15T06:02:10;0.00;99.90
34646;DHT22;20857;47.808;12.482;2024-01-15T06:04:36;-0.10;99.90
34646;DHT22;20857;47.808;12.482;2024-01-15T06:07:02;0.00;99.90
34646;DHT22;20857;47.808;12.482;2024-01-15T06:09:28;0.00;99.90
34646;DHT22;20857;47.808;12.482;2024-01-15T06:11:54;-0.10;99.90
34646;DHT22;20857;47.808;12.482;2024-01-15T06:14:20;-0.10;99.90
34646;DHT22;20857;47.808;12.482;2024-01-15T06:16:45;-0.10;99.90
34646;DHT22;20857;47.808;12.482;2024-01-15T06:19:11;-0.10;99.90
34646;DHT22;20857;47.808;12.482;2024-01-15T06:21:37;-0.10;99.90
34646;DHT22;20857;47.808;12.482;2024-01-15T06:24:02;-0.10;99.90
34646;DHT22;20857;47.808;12.482;2024-01-15T06:26:28;-0.10;99.90
34646;DHT22;20857;47.808;12.482;2024-01-15T06:28:54;-0.10;99.90
34646;DHT22;20857;47.808;12.482;2024-01-15T06:31:19;-0.10;99.90
34646;DHT22;20857;47.808;12.482;2024-01-15T06:33:45;-0.20;99.90
34646;DHT22;20857;47.808;12.482;2024-01-15T06:36:13;-0.10;99.90
34646;DHT22;20857;47.808;12.482;2024-01-15T06:38:39;-0.10;99.90
34646;DHT22;20857;47.808;12.482;2024-01-15T06:41:05;-0.10;99.90
34646;DHT22;20857;47.808;12.482;2024-01-15T06:43:30;-0.10;99.90
34646;DHT22;20857;47.808;12.482;2024-01-15T06:45:56;-0.10;99.90
34646;DHT22;20857;47.808;12.482;2024-01-15T06:48:21;-0.10;99.90
34646;DHT22;20857;47.808;12.482;2024-01-15T06:50:47;0.00;99.90
34646;DHT22;20857;47.808;12.482;2024-01-15T06:53:12;0.10;99.90
34646;DHT22;20857;47.808;12.482;2024-01-15T06:55:38;0.00;99.90
34646;DHT22;20857;47.808;12.482;2024-01-15T06:58:04;0.00;99.90
34646;DHT22;20857;47.808;12.482;2024-01-15T07:00:30;0.00;99.90
34646;DHT22;20857;47.808;12.482;2024-01-15T07:02:56;0.00;99.90
34646;DHT22;20857;47.808;12.482;2024-01-15T07:05:22;0.00;99.90
34646;DHT22;20857;47.808;12.482;2024-01-15T07:07:47;0.00;99.90
34646;DHT22;20857;47.808;12.482;2024-01-15T07:10:13;-0.10;99.90
34646;DHT22;20857;47.808;12.482;2024-01-15T07:12:41;0.00;99.90
34646;DHT22;20857;47.808;12.482;2024-01-15T07:15:07;-0.10;99.90
34646;DHT22;20857;47.808;12.482;2024-01-15T07:17:33;0.00;99.90
34646;DHT22;20857;47.808;12.482;2024-01-15T07:19:59;-0.10;99.90
34646;DHT22;20857;47.808;12.482;2024-01-15T07:22:25;-0.10;99.90
34646;DHT22;20857;47.808;12.482;2024-01-15T07:24:50;-0.10;99.90
34646;DHT22;20857;47.808;12.482;2024-01-15T07:27:16;-0.10;99.90
34646;DHT22;20857;47.808;12.482;2024-01-15T07:29:41;-0.10;99.90
34646;DHT22;20857;47.808;12.482;2024-01-15T07:32:08;-0.10;99.90
34646;DHT22;20857;47.808;12.482;2024-01-15T07:34:34;-0.10;99.90
34646;DHT22;20857;47.808;12.482;2024-01-15T07:37:00;-0.10;99.90
34646;DHT22;20857;47.808;12.482;2024-01-15T07:39:25;-0.10;99.90
34646;DHT22;20857;47.808;12.482;2024-01-15T07:41:51;-0.10;99.90
34646;DHT22;20857;47.808;12.482;2024-01-15T07:44:17;-0.10;99.90
34646;DHT22;20857;47.808;12.482;2024-01-15T07:46:46;-0.20;99.90
34646;DHT22;20857;47.808;12.482;2024-01-15T07:49:13;-0.20;99.90
34646;DHT22;20857;47.808;12.482;2024-01-15T07:51:39;-0.20;99.90
34646;DHT22;20857;47.808;12.482;2024-01-15T07:54:06;-0.20;99.90
34646;DHT22;20857;47.808;12.482;2024-01-15T07:56:32;-0.20;99.90
34646;DHT22;20857;47.808;12.482;2024-01-15T07:58:58;-0.20;99.90
34646;DHT22;20857;47.808;12.482;2024-01-15T08:01:23;-0.20;99.90
34646;DHT22;20857;47.808;12.482;2024-01-15T08:03:49;-0.10;99.90
34646;DHT22;20857;47.808;12.482;2024-01-15T08:06:15;-0.10;99.90
34646;DHT22;20857;47.808;12.482;2024-01-15T08:08:40;-0.10;99.90
34646;DHT22;20857;47.808;12.482;2024-01-15T08:11:06;0.00;99.90
34646;DHT22;20857;47.808;12.482;2024-01-15T08:13:32;-0.10;99.90
34646;DHT22;20857;47.808;12.482;2024-01-15T08:15:58;-0.10;99.90
34646;DHT22;20857;47.808;12.482;2024-01-15T08:18:23;0.00;99.90
34646;DHT22;20857;47.808;12.482;2024-01-15T08:20:49;0.00;99.90
34646;DHT22;20857;47.808;12.482;2024-01-15T08:23:16;0.00;99.90
34646;DHT22;20857;47.808;12.482;2024-01-15T08:25:42;0.10;99.90
34646;DHT22;20857;47.808;12.482;2024-01-15T08:28:08;0.00;99.90
34646;DHT22;20857;47.808;12.482;2024-01-15T08:30:34;0.00;99.90
34646;DHT22;20857;47.808;12.482;2024-01-15T08:33:00;0.10;99.90
34646;DHT22;20857;47.808;12.482;2024-01-15T08:35:25;0.10;99.90
34646;DHT22;20857;47.808;12.482;2024-01-15T08:37:54;0.10;99.90
34646;DHT22;20857;47.808;12.482;2024-01-15T08:40:20;0.20;99.90
34646;DHT22;20857;47.808;12.482;2024-01-15T08:42:45;0.20;99.90
34646;DHT22;20857;47.808;12.482;2024-01-15T08:45:11;0.20;99.90
34646;DHT22;20857;47.808;12.482;2024-01-15T08:47:37;0.20;99.90
34646;DHT22;20857;47.808;12.482;2024-01-15T08:50:03;0.10;99.90
34646;DHT22;20857;47.808;12.482;2024-01-15T08:55:51;0.00;99.90
34646;DHT22;20857;47.808;12.482;2024-01-15T08:58:17;0.00;99.90
34646;DHT22;20857;47.808;12.482;2024-01-15T09:00:43;0.00;99.90
34646;DHT22;20857;47.808;12.482;2024-01-15T09:03:08;0.00;99.90
34646;DHT22;20857;47.808;12.482;2024-01-15T09:05:34;0.00;99.90
34646;DHT22;20857;47.808;12.482;2024-01-15T09:08:00;0.10;99.90
34646;DHT22;20857;47.808;12.482;2024-01-15T09:10:26;0.10;99.90
34646;DHT22;20857;47.808;12.482;2024-01-15T09:12:51;0.10;99.90
34646;DHT22;20857;47.808;12.482;2024-01-15T09:15:17;0.20;99.90
34646;DHT22;20857;47.808;12.482;2024-01-15T09:17:43;0.20;99.90
34646;DHT22;20857;47.808;12.482;2024-01-15T09:20:09;0.40;99.90
34646;DHT22;20857;47.808;12.482;2024-01-15T09:22:37;0.40;99.90
34646;DHT22;20857;47.808;12.482;2024-01-15T09:25:04;0.40;99.90
34646;DHT22;20857;47.808;12.482;2024-01-15T09:27:29;0.40;99.90
34646;DHT22;20857;47.808;12.482;2024-01-15T09:29:55;0.50;99.90
34646;DHT22;20857;47.808;12.482;2024-01-15T09:32:21;0.60;99.90
34646;DHT22;20857;47.808;12.482;2024-01-15T09:34:46;0.60;99.90
34646;DHT22;20857;47.808;12.482;2024-01-15T09:37:13;0.60;99.90
34646;DHT22;20857;47.808;12.482;2024-01-15T09:39:40;0.70;99.90
34646;DHT22;20857;47.808;12.482;2024-01-15T09:42:06;0.70;99.90
34646;DHT22;20857;47.808;12.482;2024-01-15T09:44:32;0.70;99.90
34646;DHT22;20857;47.808;12.482;2024-01-15T09:46:59;0.60;99.90
34646;DHT22;20857;47.808;12.482;2024-01-15T09:49:24;0.60;99.90
34646;DHT22;20857;47.808;12.482;2024-01-15T09:51:50;0.50;99.90
34646;DHT22;20857;47.808;12.482;2024-01-15T09:54:16;0.70;99.90
34646;DHT22;20857;47.808;12.482;2024-01-15T09:56:46;0.90;99.90
34646;DHT22;20857;47.808;12.482;2024-01-15T09:59:15;0.80;99.90
34646;DHT22;20857;47.808;12.482;2024-01-15T10:01:42;0.60;99.90
34646;DHT22;20857;47.808;12.482;2024-01-15T10:04:08;0.70;99.90
34646;DHT22;20857;47.808;12.482;2024-01-15T10:06:34;0.50;99.90
34646;DHT22;20857;47.808;12.482;2024-01-15T10:09:00;0.40;99.90
34646;DHT22;20857;47.808;12.482;2024-01-15T10:11:26;0.30;99.90
34646;DHT22;20857;47.808;12.482;2024-01-15T10:13:52;0.30;99.90
34646;DHT22;20857;47.808;12.482;2024-01-15T10:16:21;0.40;99.90
34646;DHT22;20857;47.808;12.482;2024-01-15T10:18:48;0.50;99.90
34646;DHT22;20857;47.808;12.482;2024-01-15T10:21:13;0.50;99.90
34646;DHT22;20857;47.808;12.482;2024-01-15T10:23:39;0.50;99.90
34646;DHT22;20857;47.808;12.482;2024-01-15T10:26:05;0.50;99.90
34646;DHT22;20857;47.808;12.482;2024-01-15T10:28:30;0.40;99.90
34646;DHT22;20857;47.808;12.482;2024-01-15T10:30:58;0.30;99.90
34646;DHT22;20857;47.808;12.482;2024-01-15T10:33:27;0.30;99.90
34646;DHT22;20857;47.808;12.482;2024-01-15T10:35:54;0.40;99.90
34646;DHT22;20857;47.808;12.482;2024-01-15T10:38:21;0.30;99.90
34646;DHT22;20857;47.808;12.482;2024-01-15T10:40:51;0.20;99.90
34646;DHT22;20857;47.808;12.482;2024-01-15T10:43:17;0.20;99.90
34646;DHT22;20857;47.808;12.482;2024-01-15T10:45:46;0.20;99.90
34646;DHT22;20857;47.808;12.482;2024-01-15T10:48:12;0.20;99.90
34646;DHT22;20857;47.808;12.482;2024-01-15T10:50:38;0.20;99.90
34646;DHT22;20857;47.808;12.482;2024-01-15T10:53:05;-0.10;99.90
34646;DHT22;20857;47.808;12.482;2024-01-15T10:55:31;-0.10;99.90
34646;DHT22;20857;47.808;12.482;2024-01-15T10:57:59;-0.10;99.90
34646;DHT22;20857;47.808;12.482;2024-01-15T11:00:25;-0.20;99.90
34646;DHT22;20857;47.808;12.482;2024-01-15T11:02:51;-0.20;99.90
34646;DHT22;20857;47.808;12.482;2024-01-15T11:05:18;0.00;99.90
34646;DHT22;20857;47.808;12.482;2024-01-15T11:07:50;0.20;99.90
34646;DHT22;20857;47.808;12.482;2024-01-15T11:10:55;0.20;99.90
34646;DHT22;20857;47.808;12.482;2024-01-15T11:13:40;0.30;99.90
34646;DHT22;20857;47.808;12.482;2024-01-15T11:16:06;0.40;99.90
34646;DHT22;20857;47.808;12.482;2024-01-15T11:18:34;0.50;99.90
34646;DHT22;20857;47.808;12.482;2024-01-15T11:24:00;0.70;99.90
34646;DHT22;20857;47.808;12.482;2024-01-15T11:29:05;0.60;99.90
34646;DHT22;20857;47.808;12.482;2024-01-15T11:34:10;0.60;99.90
34646;DHT22;20857;47.808;12.482;2024-01-15T11:39:40;0.70;99.90
34646;DHT22;20857;47.808;12.482;2024-01-15T11:42:10;0.60;99.90
34646;DHT22;20857;47.808;12.482;2024-01-15T11:44:37;0.50;99.90
34646;DHT22;20857;47.808;12.482;2024-01-15T11:47:08;0.40;99.90
34646;DHT22;20857;47.808;12.482;2024-01-15T11:52:18;0.40;99.90
34646;DHT22;20857;47.808;12.482;2024-01-15T11:57:50;0.50;99.90
34646;DHT22;20857;47.808;12.482;2024-01-15T12:00:16;0.70;99.90
34646;DHT22;20857;47.808;12.482;2024-01-15T12:02:44;0.40;99.90
34646;DHT22;20857;47.808;12.482;2024-01-15T12:05:11;0.20;99.90
34646;DHT22;20857;47.808;12.482;2024-01-15T12:07:42;0.20;99.90
34646;DHT22;20857;47.808;12.482;2024-01-15T12:10:09;0.10;99.90
34646;DHT22;20857;47.808;12.482;2024-01-15T12:15:10;0.00;99.90
34646;DHT22;20857;47.808;12.482;2024-01-15T12:17:35;0.10;99.90
34646;DHT22;20857;47.808;12.482;2024-01-15T12:20:03;0.20;99.90
34646;DHT22;20857;47.808;12.482;2024-01-15T12:22:29;0.40;99.90
34646;DHT22;20857;47.808;12.482;2024-01-15T12:24:55;0.70;99.90
34646;DHT22;20857;47.808;12.482;2024-01-15T12:27:21;0.90;99.90
34646;DHT22;20857;47.808;12.482;2024-01-15T12:29:47;1.10;99.90
34646;DHT22;20857;47.808;12.482;2024-01-15T12:32:12;1.30;99.90
34646;DHT22;20857;47.808;12.482;2024-01-15T12:34:38;1.10;99.90
34646;DHT22;20857;47.808;12.482;2024-01-15T12:37:04;1.10;99.90
34646;DHT22;20857;47.808;12.482;2024-01-15T12:39:29;1.00;99.90
34646;DHT22;20857;47.808;12.482;2024-01-15T12:41:55;1.10;99.90
34646;DHT22;20857;47.808;12.482;2024-01-15T12:44:21;1.20;99.90
34646;DHT22;20857;47.808;12.482;2024-01-15T12:46:47;1.10;99.90
34646;DHT22;20857;47.808;12.482;2024-01-15T12:49:13;1.20;99.90
34646;DHT22;20857;47.808;12.482;2024-01-15T12:51:39;1.00;99.90
34646;DHT22;20857;47.808;12.482;2024-01-15T12:54:04;1.10;99.90
34646;DHT22;20857;47.808;12.482;2024-01-15T12:56:30;1.10;99.90
34646;DHT22;20857;47.808;12.482;2024-01-15T12:58:56;1.20;99.90
34646;DHT22;20857;47.808;12.482;2024-01-15T13:01:21;1.20;99.90
34646;DHT22;20857;47.808;12.482;2024-01-15T13:03:47;1.20;99.90
34646;DHT22;20857;47.808;12.482;2024-01-15T13:06:13;1.10;99.90
34646;DHT22;20857;47.808;12.482;2024-01-15T13:08:38;1.20;99.90
34646;DHT22;20857;47.808;12.482;2024-01-15T13:11:04;1.20;99.90
34646;DHT22;20857;47.808;12.482;2024-01-15T13:13:30;1.30;99.90
34646;DHT22;20857;47.808;12.482;2024-01-15T13:15:56;1.30;99.90
34646;DHT22;20857;47.808;12.482;2024-01-15T13:18:22;1.40;99.90
34646;DHT22;20857;47.808;12.482;2024-01-15T13:20:47;1.40;99.90
34646;DHT22;20857;47.808;12.482;2024-01-15T13:23:13;1.50;99.90
34646;DHT22;20857;47.808;12.482;2024-01-15T13:25:39;1.50;99.90
34646;DHT22;20857;47.808;12.482;2024-01-15T13:28:06;1.60;99.90
34646;DHT22;20857;47.808;12.482;2024-01-15T13:30:32;1.60;99.90
34646;DHT22;20857;47.808;12.482;2024-01-15T13:32:58;1.60;99.90
34646;DHT22;20857;47.808;12.482;2024-01-15T13:35:29;1.70;99.90
34646;DHT22;20857;47.808;12.482;2024-01-15T13:37:54;1.70;99.90
34646;DHT22;20857;47.808;12.482;2024-01-15T13:40:20;1.80;99.90
34646;DHT22;20857;47.808;12.482;2024-01-15T13:42:46;1.80;99.90
34646;DHT22;20857;47.808;12.482;2024-01-15T13:45:12;1.80;99.90
34646;DHT22;20857;47.808;12.482;2024-01-15T13:47:41;1.80;99.90
34646;DHT22;20857;47.808;12.482;2024-01-15T13:50:09;1.80;99.90
34646;DHT22;20857;47.808;12.482;2024-01-15T13:52:34;1.90;99.90
34646;DHT22;20857;47.808;12.482;2024-01-15T13:55:00;1.90;99.90
34646;DHT22;20857;47.808;12.482;2024-01-15T13:57:26;1.90;99.90
34646;DHT22;20857;47.808;12.482;2024-01-15T13:59:51;2.00;99.90
34646;DHT22;20857;47.808;12.482;2024-01-15T14:02:17;2.00;99.90
34646;DHT22;20857;47.808;12.482;2024-01-15T14:04:43;2.00;99.90
34646;DHT22;20857;47.808;12.482;2024-01-15T14:07:08;2.00;99.90
34646;DHT22;20857;47.808;12.482;2024-01-15T14:09:34;1.90;99.90
34646;DHT22;20857;47.808;12.482;2024-01-15T14:11:59;1.70;99.90
34646;DHT22;20857;47.808;12.482;2024-01-15T14:14:25;1.60;99.90
34646;DHT22;20857;47.808;12.482;2024-01-15T14:16:51;1.50;99.90
34646;DHT22;20857;47.808;12.482;2024-01-15T14:19:16;1.40;99.90
34646;DHT22;20857;47.808;12.482;2024-01-15T14:21:43;1.40;99.90
34646;DHT22;20857;47.808;12.482;2024-01-15T14:24:09;1.40;99.90
34646;DHT22;20857;47.808;12.482;2024-01-15T14:26:34;1.30;99.90
34646;DHT22;20857;47.808;12.482;2024-01-15T14:29:00;1.30;99.90
34646;DHT22;20857;47.808;12.482;2024-01-15T14:31:25;1.30;99.90
34646;DHT22;20857;47.808;12.482;2024-01-15T14:33:54;1.30;99.90
34646;DHT22;20857;47.808;12.482;2024-01-15T14:36:23;1.30;99.90
34646;DHT22;20857;47.808;12.482;2024-01-15T14:38:49;1.30;99.90
34646;DHT22;20857;47.808;12.482;2024-01-15T14:41:15;1.30;99.90
34646;DHT22;20857;47.808;12.482;2024-01-15T14:43:42;1.40;99.90
34646;DHT22;20857;47.808;12.482;2024-01-15T14:46:07;1.40;99.90
34646;DHT22;20857;47.808;12.482;2024-01-15T14:48:33;1.40;99.90
34646;DHT22;20857;47.808;12.482;2024-01-15T14:50:59;1.70;99.90
34646;DHT22;20857;47.808;12.482;2024-01-15T14:53:24;1.40;99.90
34646;DHT22;20857;47.808;12.482;2024-01-15T14:55:50;1.30;99.90
34646;DHT22;20857;47.808;12.482;2024-01-15T14:58:15;1.30;99.90
34646;DHT22;20857;47.808;12.482;2024-01-15T15:00:41;1.30;99.90
34646;DHT22;20857;47.808;12.482;2024-01-15T15:03:07;1.30;99.90
34646;DHT22;20857;47.808;12.482;2024-01-15T15:05:32;1.20;99.90
34646;DHT22;20857;47.808;12.482;2024-01-15T15:07:58;1.10;99.90
34646;DHT22;20857;47.808;12.482;2024-01-15T15:10:25;1.10;99.90
34646;DHT22;20857;47.808;12.482;2024-01-15T15:12:52;1.20;99.90
34646;DHT22;20857;47.808;12.482;2024-01-15T15:15:17;1.10;99.90
34646;DHT22;20857;47.808;12.482;2024-01-15T15:17:43;1.00;99.90
34646;DHT22;20857;47.808;12.482;2024-01-15T15:20:10;1.10;99.90
34646;DHT22;20857;47.808;12.482;2024-01-15T15:22:35;1.10;99.90
34646;DHT22;20857;47.808;12.482;2024-01-15T15:25:01;1.10;99.90
34646;DHT22;20857;47.808;12.482;2024-01-15T15:27:26;1.10;99.90
34646;DHT22;20857;47.808;12.482;2024-01-15T15:29:53;1.10;99.90
34646;DHT22;20857;47.808;12.482;2024-01-15T15:32:19;1.00;99.90
34646;DHT22;20857;47.808;12.482;2024-01-15T15:34:44;1.10;99.90
34646;DHT22;20857;47.808;12.482;2024-01-15T15:37:10;1.10;99.90
34646;DHT22;20857;47.808;12.482;2024-01-15T15:39:36;1.10;99.90
34646;DHT22;20857;47.808;12.482;2024-01-15T15:42:02;1.10;99.90